Maersk Drummond — A8JF3 — position and weather

sailwx.info

Track history (hours):
 
Tides and Currents Weather Stations Pressure Air Temp Water Temp Dewpoint Dewpoint Depression Visibility Wind Speed Wind Dir Waves Ship Positions

Maersk Drummond

Last reported at 2014-Sep-16 22:24 UTC. Time now 2014-Sep-16 23:35 UTC.
Position N 39°58' W 029°36'.

Length 294 m; draft 9.5 m.

Type: Ship (hazmat cat A). MMSI: 636091082.

Date/timePositionNaut miles runAvg speedWind from/ knotsBaromVisibWave heightAir tempDewpointWater temp
2014-Sep-16 22:24N 39°58' W 029°36'  
2014-Sep-09 20:06N 26°37' W 079°24'1118.3
2014-Sep-09 19:30N 26°27' W 079°27'1414.9
2014-Sep-09 18:33N 26°16' W 079°37'1615.7
2014-Sep-09 17:33N 26°13' W 079°54'1313.3
2014-Sep-09 16:33N 26°06' W 080°07'1 1.3
2014-Sep-09 15:30N 26°04' W 080°07'0 0.0
2014-Sep-09 14:30N 26°04' W 080°07'0 0.0
2014-Sep-09 13:30N 26°04' W 080°07'0 0.0
2014-Sep-09 12:33N 26°04' W 080°07'0 0.0
2014-Sep-09 11:30N 26°04' W 080°07'1 1.4
2014-Sep-09 10:33N 26°06' W 080°07'5 4.8
2014-Sep-09 09:33N 26°02' W 080°03'2 1.7
2014-Sep-09 08:33N 26°01' W 080°02'9 8.6
2014-Sep-09 07:33N 25°53' W 079°57'1312.9
2014-Sep-09 06:33N 25°41' W 079°56'  
Track history (hours):
 
Tides and Currents Weather Stations Pressure Air Temp Water Temp Dewpoint Dewpoint Depression Visibility Wind Speed Wind Dir Waves Ship Positions

Maersk Drummond

Last reported at 2014-Sep-16 22:24 UTC. Time now 2014-Sep-16 23:35 UTC.
Position N 39°58' W 029°36'.

Length 294 m; draft 9.5 m.

Type: Ship (hazmat cat A). MMSI: 636091082.

Date/timePositionNaut miles runAvg speedWind from/ knotsBaromVisibWave heightAir tempDewpointWater temp
2014-Sep-16 22:24N 39°58' W 029°36'  
2014-Sep-09 20:06N 26°37' W 079°24'1118.3
2014-Sep-09 19:30N 26°27' W 079°27'1414.9
2014-Sep-09 18:33N 26°16' W 079°37'1615.7
2014-Sep-09 17:33N 26°13' W 079°54'1313.3
2014-Sep-09 16:33N 26°06' W 080°07'1 1.3
2014-Sep-09 15:30N 26°04' W 080°07'0 0.0
2014-Sep-09 14:30N 26°04' W 080°07'0 0.0
2014-Sep-09 13:30N 26°04' W 080°07'0 0.0
2014-Sep-09 12:33N 26°04' W 080°07'0 0.0
2014-Sep-09 11:30N 26°04' W 080°07'1 1.4
2014-Sep-09 10:33N 26°06' W 080°07'5 4.8
2014-Sep-09 09:33N 26°02' W 080°03'2 1.7
2014-Sep-09 08:33N 26°01' W 080°02'9 8.6
2014-Sep-09 07:33N 25°53' W 079°57'1312.9
2014-Sep-09 06:33N 25°41' W 079°56'  

Dump ship's entire track history